Flight Track Log - Related Links

Times and Time Zones

All times are in EDT time to prevent confusion due to time zone crossing. See the LPE2530 flight status page for this flight to view local times or setup timezone preferences in your user account.

Time Position Orientation Groundspeed Altitude Reporting Facility
EDT Latitude Longitude Course Direction KTS MPH feet Rate Location/Type
Sun 01:46:49 AM -11.9340 -77.2620 272° West 289 333 5,500  Level FlightAware ADS-B
Sun 01:47:23 AM -11.9320 -77.3110 272° West 306 352 6,800 2,364 Climbing FlightAware ADS-B
Sun 01:47:55 AM -11.9290 -77.3570 274° West 316 364 8,100 2,455 Climbing FlightAware ADS-B
Sun 01:48:07 AM -11.9270 -77.3760 276° West 319 367 8,600 1,826 Climbing FlightAware ADS-B
Sun 01:49:04 AM -11.9230 -77.4550 273° West 313 360 10,200 1,805 Climbing FlightAware ADS-B
Sun 01:50:00 AM -11.9030 -77.5510 282° West 386 444 12,000 1,163 Climbing FlightAware ADS-B
Sun 01:50:42 AM -11.8640 -77.6060 306° West 388 447 12,100 2,458 Climbing FlightAware ADS-B
Sun 01:51:23 AM -11.7950 -77.6680 319° Northwest 403 464 15,400 3,630 Climbing FlightAware ADS-B
Sun 01:52:03 AM -11.7430 -77.7270 312° West 409 471 17,000 2,268 Climbing FlightAware ADS-B
Sun 01:52:45 AM -11.6910 -77.7870 312° West 418 481 18,500 2,047 Climbing FlightAware ADS-B
Sun 01:53:28 AM -11.6360 -77.8480 313° West 426 490 19,900 1,884 Climbing FlightAware ADS-B
Sun 01:54:11 AM -11.5740 -77.9140 314° West 435 501 21,200 1,671 Climbing FlightAware ADS-B
Sun 01:54:47 AM -11.5260 -77.9660 313° West 443 510 22,100 1,304 Climbing FlightAware ADS-B
Sun 01:55:43 AM -11.4520 -78.0460 313° West 444 511 23,200 635 Climbing FlightAware ADS-B
Sun 01:56:31 AM -11.3940 -78.1070 314° West 444 511 23,200  Level FlightAware ADS-B
Sun 01:57:21 AM -11.3330 -78.1710 314° West 444 511 23,200  Level FlightAware ADS-B
Sun 01:57:57 AM -11.2900 -78.2170 314° West 444 511 23,200  Level FlightAware ADS-B
Sun 01:59:00 AM -11.2130 -78.2980 314° West 444 511 23,200 39 Level FlightAware ADS-B
Sun 02:01:00 AM -10.9811 -78.2800 North  Level Estimated
Sun 02:02:00 AM -10.8651 -78.2710 North  Level Estimated
Sun 02:03:00 AM -10.7491 -78.2621 North  Level Estimated
Sun 02:04:00 AM -10.6332 -78.2531 North  Level Estimated
Sun 02:05:00 AM -10.5172 -78.2442 North  Level Estimated
Sun 02:06:00 AM -10.4012 -78.2352 North  Level Estimated
Sun 02:07:00 AM -10.2852 -78.2263 North  Level Estimated
Sun 02:08:00 AM -10.1693 -78.2173 North  Level Estimated
Sun 02:09:00 AM -10.0533 -78.2084 North  Level Estimated
Sun 02:10:00 AM -9.9373 -78.1995 North  Level Estimated
Sun 02:11:00 AM -9.8214 -78.1906 North  Level Estimated
Sun 02:12:00 AM -9.7054 -78.1816 North  Level Estimated
Sun 02:13:00 AM -9.5894 -78.1728 North  Level Estimated
Sun 02:14:00 AM -9.4734 -78.1638 North  Level Estimated
Sun 02:15:00 AM -9.3574 -78.1550 North  Level Estimated
Sun 02:16:00 AM -9.2415 -78.1461 North  Level Estimated
Sun 02:17:00 AM -9.1255 -78.1372 North  Level Estimated
Sun 02:18:00 AM -9.0095 -78.1283 North  Level Estimated
Sun 02:19:00 AM -8.8935 -78.1195 North  Level Estimated
Sun 02:20:00 AM -8.7775 -78.1106 North  Level Estimated
Sun 02:21:00 AM -8.6616 -78.1017 North  Level Estimated
Sun 02:22:00 AM -8.5456 -78.0929 North  Level Estimated
Sun 02:23:00 AM -8.4296 -78.0840 North  Level Estimated
Sun 02:24:00 AM -8.3136 -78.0752 North  Level Estimated
Sun 02:25:00 AM -8.1976 -78.0664 North  Level Estimated
Sun 02:26:00 AM -8.0817 -78.0575 North  Level Estimated
Sun 02:27:00 AM -7.9657 -78.0487 North  Level Estimated
Sun 02:28:00 AM -7.8497 -78.0399 North  Level Estimated
Sun 02:29:00 AM -7.7337 -78.0311 North  Level Estimated
Sun 02:30:00 AM -7.6178 -78.0222 North  Level Estimated
Sun 02:31:00 AM -7.5018 -78.0134 North  Level Estimated
Sun 02:32:00 AM -7.3858 -78.0046 North  Level Estimated
Sun 02:33:00 AM -7.2698 -77.9958 North  Level Estimated
Sun 02:34:00 AM -7.1538 -77.9870 North  Level Estimated
Sun 02:35:00 AM -7.0378 -77.9782 North  Level Estimated
Sun 02:36:00 AM -6.9219 -77.9695 North  Level Estimated
Sun 02:37:00 AM -6.8059 -77.9607 North  Level Estimated
Sun 02:38:00 AM -6.6899 -77.9519 North  Level Estimated
Sun 02:39:00 AM -6.5739 -77.9432 North  Level Estimated
Sun 02:40:00 AM -6.4580 -77.9344 North  Level Estimated
Sun 02:41:00 AM -6.3420 -77.9256 North  Level Estimated
Sun 02:42:00 AM -6.2260 -77.9169 North  Level Estimated
Sun 02:43:00 AM -6.1100 -77.9081 North  Level Estimated
Sun 02:44:00 AM -5.9940 -77.8994 North  Level Estimated
Sun 02:45:00 AM -5.8780 -77.8906 North  Level Estimated
Sun 02:46:00 AM -5.7621 -77.8819 North  Level Estimated
Sun 02:47:00 AM -5.6461 -77.8731 North  Level Estimated
Sun 02:48:00 AM -5.5301 -77.8644 North  Level Estimated
Sun 02:49:00 AM -5.4141 -77.8557 North  Level Estimated
Sun 02:50:00 AM -5.2982 -77.8469 North  Level Estimated
Sun 02:51:00 AM -5.1822 -77.8382 North  Level Estimated
Sun 02:52:00 AM -5.0662 -77.8295 North  Level Estimated
Sun 02:53:00 AM -4.9502 -77.8208 North  Level Estimated
Sun 02:54:00 AM -4.8342 -77.8120 North  Level Estimated
Sun 02:55:00 AM -4.7182 -77.8033 North  Level Estimated
Sun 02:56:00 AM -4.6023 -77.7946 North  Level Estimated
Sun 02:57:00 AM -4.4863 -77.7859 North  Level Estimated
Sun 02:58:00 AM -4.3703 -77.7772 North  Level Estimated
Sun 02:59:00 AM -4.2543 -77.7685 North  Level Estimated
Sun 03:00:00 AM -4.1384 -77.7598 North  Level Estimated
Sun 03:01:00 AM -4.0224 -77.7511 North  Level Estimated
Sun 03:02:00 AM -3.9064 -77.7424 North  Level Estimated
Sun 03:03:00 AM -3.7904 -77.7337 North  Level Estimated
Sun 03:04:00 AM -3.6744 -77.7250 North  Level Estimated
Sun 03:05:00 AM -3.5584 -77.7163 North  Level Estimated
Sun 03:06:00 AM -3.4425 -77.7076 North  Level Estimated
Sun 03:07:00 AM -3.3265 -77.6990 North  Level Estimated
Sun 03:08:00 AM -3.2105 -77.6903 North  Level Estimated
Sun 03:09:00 AM -3.0945 -77.6816 North  Level Estimated
Sun 03:10:00 AM -2.9785 -77.6729 North  Level Estimated
Sun 03:11:00 AM -2.8626 -77.6642 North  Level Estimated
Sun 03:12:00 AM -2.7466 -77.6556 North  Level Estimated
Sun 03:13:00 AM -2.6306 -77.6469 North  Level Estimated
Sun 03:14:00 AM -2.5146 -77.6382 North  Level Estimated
Sun 03:15:00 AM -2.3986 -77.6296 North  Level Estimated
Sun 03:16:00 AM -2.2827 -77.6209 North  Level Estimated
Sun 03:17:00 AM -2.1667 -77.6122 North  Level Estimated
Sun 03:18:00 AM -2.0507 -77.6036 North  Level Estimated
Sun 03:19:00 AM -1.9347 -77.5949 North  Level Estimated
Sun 03:20:00 AM -1.8188 -77.5862 North  Level Estimated
Sun 03:21:00 AM -1.7028 -77.5776 North  Level Estimated
Sun 03:22:00 AM -1.5868 -77.5689 North  Level Estimated
Sun 03:23:00 AM -1.4708 -77.5602 North  Level Estimated
Sun 03:24:00 AM -1.3548 -77.5516 North  Level Estimated
Sun 03:25:00 AM -1.2388 -77.5429 North  Level Estimated
Sun 03:26:00 AM -1.1229 -77.5343 North  Level Estimated
Sun 03:27:00 AM -1.0069 -77.5256 North  Level Estimated
Sun 03:28:00 AM -0.8909 -77.5170 North  Level Estimated
Sun 03:29:00 AM -0.7749 -77.5083 North  Level Estimated
Sun 03:30:00 AM -0.6589 -77.4996 North  Level Estimated
Sun 03:31:00 AM -0.5430 -77.4910 North  Level Estimated
Sun 03:32:00 AM -0.4270 -77.4823 North  Level Estimated
Sun 03:33:00 AM -0.3110 -77.4737 North  Level Estimated
Sun 03:34:00 AM -0.1950 -77.4650 North  Level Estimated
Sun 03:35:00 AM -0.0790 -77.4564 North  Level Estimated
Sun 03:36:00 AM 0.0369 -77.4477 North  Level Estimated
Sun 03:37:00 AM 0.1529 -77.4391 North  Level Estimated
Sun 03:38:00 AM 0.2689 -77.4304 North  Level Estimated
Sun 03:39:00 AM 0.3849 -77.4218 North  Level Estimated
Sun 03:40:00 AM 0.5009 -77.4131 North  Level Estimated
Sun 03:41:00 AM 0.6168 -77.4045 North  Level Estimated
Sun 03:42:00 AM 0.7328 -77.3958 North  Level Estimated
Sun 03:43:00 AM 0.8488 -77.3872 North  Level Estimated
Sun 03:44:00 AM 0.9648 -77.3785 North  Level Estimated
Sun 03:45:00 AM 1.0807 -77.3699 North  Level Estimated
Sun 03:46:00 AM 1.1967 -77.3612 North  Level Estimated
Sun 03:47:00 AM 1.3127 -77.3525 North  Level Estimated
Sun 03:48:00 AM 1.4287 -77.3439 North  Level Estimated
Sun 03:49:00 AM 1.5447 -77.3352 North  Level Estimated
Sun 03:50:00 AM 1.6607 -77.3266 North  Level Estimated
Sun 03:51:00 AM 1.7766 -77.3179 North  Level Estimated
Sun 03:52:00 AM 1.8926 -77.3092 North  Level Estimated
Sun 03:53:00 AM 2.0086 -77.3006 North  Level Estimated
Sun 03:54:00 AM 2.1246 -77.2919 North  Level Estimated
Sun 03:55:00 AM 2.2406 -77.2832 North  Level Estimated
Sun 03:56:00 AM 2.3565 -77.2746 North  Level Estimated
Sun 03:57:00 AM 2.4725 -77.2659 North  Level Estimated
Sun 03:58:00 AM 2.5885 -77.2572 North  Level Estimated
Sun 03:59:00 AM 2.7045 -77.2486 North  Level Estimated
Sun 04:00:00 AM 2.8205 -77.2399 North  Level Estimated
Sun 04:01:00 AM 2.9364 -77.2312 North  Level Estimated
Sun 04:02:00 AM 3.0524 -77.2225 North  Level Estimated
Sun 04:03:00 AM 3.1684 -77.2139 North  Level Estimated
Sun 04:04:00 AM 3.2844 -77.2052 North  Level Estimated
Sun 04:05:00 AM 3.4004 -77.1965 North  Level Estimated
Sun 04:06:00 AM 3.5163 -77.1878 North  Level Estimated
Sun 04:07:00 AM 3.6323 -77.1791 North  Level Estimated
Sun 04:08:00 AM 3.7483 -77.1704 North  Level Estimated
Sun 04:09:00 AM 3.8643 -77.1617 North  Level Estimated
Sun 04:10:00 AM 3.9802 -77.1531 North  Level Estimated
Sun 04:11:00 AM 4.0962 -77.1443 North  Level Estimated
Sun 04:12:00 AM 4.2122 -77.1357 North  Level Estimated
Sun 04:13:00 AM 4.3282 -77.1270 North  Level Estimated
Sun 04:14:00 AM 4.4442 -77.1182 North  Level Estimated
Sun 04:15:00 AM 4.5602 -77.1095 North  Level Estimated
Sun 04:16:00 AM 4.6761 -77.1008 North  Level Estimated
Sun 04:17:00 AM 4.7921 -77.0921 North  Level Estimated
Sun 04:18:00 AM 4.9081 -77.0834 North  Level Estimated
Sun 04:19:00 AM 5.0241 -77.0747 North  Level Estimated
Sun 04:20:00 AM 5.1400 -77.0660 North  Level Estimated
Sun 04:21:00 AM 5.2560 -77.0572 North  Level Estimated
Sun 04:22:00 AM 5.3720 -77.0485 North  Level Estimated
Sun 04:23:00 AM 5.4880 -77.0398 North  Level Estimated
Sun 04:24:00 AM 5.6040 -77.0310 North  Level Estimated
Sun 04:25:00 AM 5.7200 -77.0223 North  Level Estimated
Sun 04:26:00 AM 5.8359 -77.0136 North  Level Estimated
Sun 04:27:00 AM 5.9519 -77.0048 North  Level Estimated
Sun 04:28:00 AM 6.0679 -76.9961 North  Level Estimated
Sun 04:29:00 AM 6.1839 -76.9873 North  Level Estimated
Sun 04:30:00 AM 6.2998 -76.9786 North  Level Estimated
Sun 04:31:00 AM 6.4158 -76.9698 North  Level Estimated
Sun 04:32:00 AM 6.5318 -76.9610 North  Level Estimated
Sun 04:33:00 AM 6.6478 -76.9523 North  Level Estimated
Sun 04:34:00 AM 6.7638 -76.9435 North  Level Estimated
Sun 04:35:00 AM 6.8797 -76.9347 North  Level Estimated
Sun 04:36:00 AM 6.9957 -76.9259 North  Level Estimated
Sun 04:37:00 AM 7.1117 -76.9171 North  Level Estimated
Sun 04:38:00 AM 7.2277 -76.9083 North  Level Estimated
Sun 04:39:00 AM 7.3437 -76.8996 North  Level Estimated
Sun 04:40:00 AM 7.4597 -76.8908 North  Level Estimated
Sun 04:41:00 AM 7.5756 -76.8820 North  Level Estimated
Sun 04:42:00 AM 7.6916 -76.8732 North  Level Estimated
Sun 04:43:00 AM 7.8076 -76.8643 North  Level Estimated
Sun 04:44:00 AM 7.9236 -76.8555 North  Level Estimated
Sun 04:45:00 AM 8.0395 -76.8467 North  Level Estimated
Sun 04:46:00 AM 8.1555 -76.8379 North  Level Estimated
Sun 04:47:00 AM 8.2715 -76.8290 North  Level Estimated
Sun 04:48:00 AM 8.3875 -76.8202 North  Level Estimated
Sun 04:49:00 AM 8.5035 -76.8114 North  Level Estimated
Sun 04:50:00 AM 8.6194 -76.8025 North  Level Estimated
Sun 04:51:00 AM 8.7354 -76.7936 North  Level Estimated
Sun 04:52:00 AM 8.8514 -76.7848 North  Level Estimated
Sun 04:53:00 AM 8.9674 -76.7759 North  Level Estimated
Sun 04:54:00 AM 9.0834 -76.7671 North  Level Estimated
Sun 04:55:00 AM 9.1994 -76.7582 North  Level Estimated
Sun 04:56:00 AM 9.3153 -76.7493 North  Level Estimated
Sun 04:57:00 AM 9.4313 -76.7404 North  Level Estimated
Sun 04:58:00 AM 9.5473 -76.7315 North  Level Estimated
Sun 04:59:00 AM 9.6633 -76.7226 North  Level Estimated
Sun 05:00:00 AM 9.7793 -76.7137 North  Level Estimated
Sun 05:01:00 AM 9.8952 -76.7048 North  Level Estimated
Sun 05:02:00 AM 10.0112 -76.6959 North  Level Estimated
Sun 05:03:00 AM 10.1272 -76.6869 North  Level Estimated
Sun 05:04:00 AM 10.2431 -76.6780 North  Level Estimated
Sun 05:05:00 AM 10.3591 -76.6691 North  Level Estimated
Sun 05:06:00 AM 10.4751 -76.6601 North  Level Estimated
Sun 05:07:00 AM 10.5910 -76.6512 North  Level Estimated
Sun 05:08:00 AM 10.7070 -76.6422 North  Level Estimated
Sun 05:09:00 AM 10.8230 -76.6332 North  Level Estimated
Sun 05:10:00 AM 10.9389 -76.6243 North  Level Estimated
Sun 05:11:00 AM 11.0549 -76.6153 North  Level Estimated
Sun 05:12:00 AM 11.1709 -76.6063 North  Level Estimated
Sun 05:13:00 AM 11.2869 -76.5973 North  Level Estimated
Sun 05:14:00 AM 11.4028 -76.5883 North  Level Estimated
Sun 05:15:00 AM 11.5188 -76.5793 North  Level Estimated
Sun 05:16:00 AM 11.6348 -76.5703 North  Level Estimated
Sun 05:17:00 AM 11.7507 -76.5612 North  Level Estimated
Sun 05:18:00 AM 11.8667 -76.5522 North  Level Estimated
Sun 05:19:00 AM 11.9827 -76.5432 North  Level Estimated
Sun 05:20:00 AM 12.0986 -76.5341 North  Level Estimated
Sun 05:21:00 AM 12.2146 -76.5251 North  Level Estimated
Sun 05:22:00 AM 12.3306 -76.5160 North  Level Estimated
Sun 05:23:00 AM 12.4466 -76.5070 North  Level Estimated
Sun 05:24:00 AM 12.5625 -76.4979 North  Level Estimated
Sun 05:25:00 AM 12.6785 -76.4888 North  Level Estimated
Sun 05:26:00 AM 12.7945 -76.4797 North  Level Estimated
Sun 05:27:00 AM 12.9104 -76.4706 North  Level Estimated
Sun 05:28:00 AM 13.0264 -76.4615 North  Level Estimated
Sun 05:29:00 AM 13.1424 -76.4523 North  Level Estimated
Sun 05:30:00 AM 13.2584 -76.4432 North  Level Estimated
Sun 05:31:00 AM 13.3743 -76.4341 North  Level Estimated
Sun 05:32:00 AM 13.4903 -76.4249 North  Level Estimated
Sun 05:33:00 AM 13.6063 -76.4158 North  Level Estimated
Sun 05:34:00 AM 13.7222 -76.4066 North  Level Estimated
Sun 05:35:00 AM 13.8382 -76.3974 North  Level Estimated
Sun 05:36:00 AM 13.9542 -76.3883 North  Level Estimated
Sun 05:37:00 AM 14.0701 -76.3791 North  Level Estimated
Sun 05:38:00 AM 14.1861 -76.3699 North  Level Estimated
Sun 05:39:00 AM 14.3020 -76.3607 North  Level Estimated
Sun 05:40:00 AM 14.4180 -76.3514 North  Level Estimated
Sun 05:41:00 AM 14.5340 -76.3422 North  Level Estimated
Sun 05:42:00 AM 14.6499 -76.3330 North  Level Estimated
Sun 05:43:00 AM 14.7659 -76.3237 North  Level Estimated
Sun 05:44:00 AM 14.8818 -76.3145 North  Level Estimated
Sun 05:45:00 AM 14.9978 -76.3052 North  Level Estimated
Sun 05:46:00 AM 15.1138 -76.2959 North  Level Estimated
Sun 05:47:00 AM 15.2297 -76.2866 North  Level Estimated
Sun 05:48:00 AM 15.3457 -76.2773 North  Level Estimated
Sun 05:49:00 AM 15.4616 -76.2680 North  Level Estimated
Sun 05:50:00 AM 15.5776 -76.2587 North  Level Estimated
Sun 05:51:00 AM 15.6936 -76.2494 North  Level Estimated
Sun 05:52:00 AM 15.8095 -76.2400 North  Level Estimated
Sun 05:53:00 AM 15.9255 -76.2307 North  Level Estimated
Sun 05:54:00 AM 16.0414 -76.2213 North  Level Estimated
Sun 05:55:00 AM 16.1574 -76.2119 North  Level Estimated
Sun 05:56:00 AM 16.2734 -76.2026 North  Level Estimated
Sun 05:57:00 AM 16.3893 -76.1932 North  Level Estimated
Sun 05:58:00 AM 16.5053 -76.1837 North  Level Estimated
Sun 05:59:00 AM 16.6212 -76.1743 North  Level Estimated
Sun 06:00:00 AM 16.7372 -76.1649 North  Level Estimated
Sun 06:01:00 AM 16.8532 -76.1554 North  Level Estimated
Sun 06:02:00 AM 16.9691 -76.1460 North  Level Estimated
Sun 06:03:00 AM 17.0851 -76.1365 North  Level Estimated
Sun 06:04:00 AM 17.2010 -76.1271 North  Level Estimated
Sun 06:05:00 AM 17.3170 -76.1176 North  Level Estimated
Sun 06:06:00 AM 17.4329 -76.1081 North  Level Estimated
Sun 06:07:00 AM 17.5489 -76.0985 North  Level Estimated
Sun 06:08:00 AM 17.6648 -76.0890 North  Level Estimated
Sun 06:09:00 AM 17.7808 -76.0795 North  Level Estimated
Sun 06:10:00 AM 17.8967 -76.0699 North  Level Estimated
Sun 06:11:00 AM 18.0127 -76.0604 North  Level Estimated
Sun 06:12:00 AM 18.1286 -76.0508 North  Level Estimated
Sun 06:13:00 AM 18.2446 -76.0412 North  Level Estimated
Sun 06:14:00 AM 18.3605 -76.0316 North  Level Estimated
Sun 06:15:00 AM 18.4765 -76.0220 North  Level Estimated
Sun 06:16:00 AM 18.5924 -76.0124 North  Level Estimated
Sun 06:17:00 AM 18.7084 -76.0027 North  Level Estimated
Sun 06:18:00 AM 18.8243 -75.9931 North  Level Estimated
Sun 06:19:00 AM 18.9403 -75.9834 North  Level Estimated
Sun 06:20:00 AM 19.0562 -75.9737 North  Level Estimated
Sun 06:21:00 AM 19.1722 -75.9640 North  Level Estimated
Sun 06:22:00 AM 19.2881 -75.9543 North  Level Estimated
Sun 06:23:00 AM 19.4041 -75.9446 North  Level Estimated
Sun 06:24:00 AM 19.5200 -75.9349 North  Level Estimated
Sun 06:25:00 AM 19.6359 -75.9251 North  Level Estimated
Sun 06:26:00 AM 19.7596 -75.9147 North  Level Estimated
Sun 06:27:00 AM 19.8832 -75.9043 North  Level Estimated
Sun 06:28:00 AM 20.0068 -75.8939 North  Level Estimated
Sun 06:29:00 AM 20.1304 -75.8834 North  Level Estimated
Sun 06:30:00 AM 20.2540 -75.8729 North  Level Estimated
Sun 06:31:00 AM 20.3776 -75.8624 North  Level Estimated
Sun 06:32:00 AM 20.5013 -75.8519 North  Level Estimated
Sun 06:33:00 AM 20.6249 -75.8414 North  Level Estimated
Sun 06:34:00 AM 20.7485 -75.8309 North  Level Estimated
Sun 06:34:11 AM 23.8040 -79.0740 North 443 510 34,000  Level FlightAware ADS-B
Sun 06:34:53 AM 23.8760 -79.0730 North 443 510 34,000  Level FlightAware ADS-B
Sun 06:35:29 AM 23.9390 -79.0720 North 443 510 34,000  Level FlightAware ADS-B
Sun 06:36:05 AM 24.0010 -79.0700 North 443 510 34,000  Level FlightAware ADS-B
Sun 06:36:53 AM 24.0850 -79.0690 North 443 510 34,000  Level FlightAware ADS-B
Sun 06:37:41 AM 24.1690 -79.0670 North 443 510 34,000  Level FlightAware ADS-B
Sun 06:38:15 AM 24.3030 -79.0260 16° North 444 511 34,000  Level FlightAware ADS-B
Sun 06:39:01 AM 24.3900 -79.0140 North 444 511 34,000 456 Level FlightAware ADS-B
Sun 06:39:34 AM 24.4620 -79.0040 North 438 504 34,600 779 Climbing FlightAware ADS-B
Sun 06:40:18 AM 24.5530 -78.9910 North 438 504 35,000 282 Climbing FlightAware ADS-B
Sun 06:40:59 AM 24.6340 -78.9800 North 436 502 35,000  Level FlightAware ADS-B
Sun 06:42:04 AM 24.7630 -78.9620 North 437 503 35,000  Level FlightAware ADS-B
Sun 06:42:48 AM 24.8630 -78.9480 North 436 502 35,000  Level FlightAware ADS-B
Sun 06:43:28 AM 24.9410 -78.9370 North 436 502 35,000  Level FlightAware ADS-B
Sun 06:44:09 AM 25.0260 -78.9250 North 436 502 35,000  Level FlightAware ADS-B
Sun 06:44:53 AM 25.1170 -78.9120 North 434 499 35,000  Level FlightAware ADS-B
Sun 06:45:34 AM 25.1990 -78.9000 North 441 507 35,000  Level FlightAware ADS-B
Sun 06:46:13 AM 25.2800 -78.8890 North 440 506 35,000  Level FlightAware ADS-B
Sun 06:46:49 AM 25.3500 -78.8790 North 439 505 35,000  Level FlightAware ADS-B
Sun 06:47:33 AM 25.4390 -78.8670 North 438 504 35,000  Level FlightAware ADS-B
Sun 06:48:14 AM 25.5150 -78.8560 North 436 502 35,000  Level FlightAware ADS-B
Sun 06:48:59 AM 25.6130 -78.8420 North 435 501 35,000  Level FlightAware ADS-B
Sun 06:49:38 AM 25.6920 -78.8310 North 435 501 35,000  Level FlightAware ADS-B
Sun 06:50:24 AM 25.7830 -78.8180 North 434 499 35,000  Level FlightAware ADS-B
Sun 06:51:03 AM 25.8630 -78.8060 North 425 489 35,000  Level FlightAware ADS-B
Sun 06:51:39 AM 25.9320 -78.7960 North 425 489 35,000  Level FlightAware ADS-B
Sun 06:52:13 AM 26.0010 -78.7870 North 424 488 35,000  Level FlightAware ADS-B
Sun 06:53:04 AM 26.1020 -78.7720 North 424 488 35,000  Level FlightAware ADS-B
Sun 06:53:38 AM 26.1710 -78.7620 North 423 487 35,000  Level FlightAware ADS-B
Sun 06:54:30 AM 26.2730 -78.7600 North 438 504 35,000  Level FlightAware ADS-B
Sun 06:54:48 AM 26.3100 -78.7770 338° Northwest 444 511 35,000  Level FlightAware ADS-B
Sun 06:55:34 AM 26.3840 -78.8450 321° Northwest 449 517 35,000  Level FlightAware ADS-B
Sun 06:56:15 AM 26.4460 -78.9070 318° Northwest 449 517 35,000  Level FlightAware ADS-B
Sun 06:56:56 AM 26.5100 -78.9720 318° Northwest 450 518 35,000  Level FlightAware ADS-B
Sun 06:57:35 AM 26.5700 -79.0320 318° Northwest 450 518 35,000  Level FlightAware ADS-B
Sun 06:58:16 AM 26.6350 -79.0970 318° Northwest 450 518 35,000  Level FlightAware ADS-B
Sun 06:59:00 AM 26.7020 -79.1640 318° Northwest 451 519 35,000  Level FlightAware ADS-B
Sun 06:59:43 AM 26.7680 -79.2300 318° Northwest 450 518 35,000  Level FlightAware ADS-B
Sun 07:00:24 AM 26.8330 -79.2960 318° Northwest 451 519 35,000  Level FlightAware ADS-B
Sun 07:01:04 AM 26.8960 -79.3580 319° Northwest 451 519 35,000  Level FlightAware ADS-B
Sun 07:01:48 AM 26.9630 -79.4270 317° Northwest 452 520 35,000  Level FlightAware ADS-B
Sun 07:02:28 AM 27.0260 -79.4890 319° Northwest 453 521 35,000  Level FlightAware ADS-B
Sun 07:03:10 AM 27.0920 -79.5560 318° Northwest 450 518 35,000  Level FlightAware ADS-B
Sun 07:03:52 AM 27.1660 -79.6050 329° Northwest 446 513 35,000  Level FlightAware ADS-B
Sun 07:04:36 AM 27.2490 -79.6420 338° Northwest 447 514 35,000  Level FlightAware ADS-B
Sun 07:05:10 AM 27.3160 -79.6710 339° North 443 510 35,000  Level FlightAware ADS-B
Sun 07:06:07 AM 27.4170 -79.7170 338° Northwest 441 507 35,000  Level FlightAware ADS-B
Sun 07:06:50 AM 27.5050 -79.7480 343° North 434 499 35,000  Level FlightAware ADS-B
Sun 07:07:22 AM 27.5700 -79.7400 North 435 501 35,000  Level FlightAware ADS-B
Sun 07:07:59 AM 27.6410 -79.7190 15° North 433 498 35,000  Level FlightAware ADS-B
Sun 07:09:09 AM 27.7640 -79.6820 15° North 433 498 35,000  Level FlightAware ADS-B
Sun 07:09:52 AM 27.8620 -79.6510 16° North 436 502 35,000  Level FlightAware ADS-B
Sun 07:10:32 AM 27.9390 -79.6280 15° North 440 506 35,000  Level FlightAware ADS-B
Sun 07:12:21 AM 28.1360 -79.5680 15° North 446 513 35,000  Level FlightAware ADS-B
Sun 07:13:01 AM 28.2150 -79.5430 16° North 447 514 35,000  Level FlightAware ADS-B
Sun 07:13:38 AM 28.3110 -79.5140 15° North 450 518 35,000  Level FlightAware ADS-B
Sun 07:14:17 AM 28.3780 -79.4930 15° North 450 518 35,000  Level FlightAware ADS-B
Sun 07:15:05 AM 28.4600 -79.4680 15° North 450 518 35,000  Level FlightAware ADS-B
Sun 07:15:53 AM 28.5420 -79.4430 15° North 450 518 35,000  Level FlightAware ADS-B
Sun 07:16:30 AM 28.6050 -79.4240 15° North 450 518 35,000  Level FlightAware ADS-B
Sun 07:17:07 AM 28.6680 -79.4050 15° North 450 518 35,000  Level FlightAware ADS-B
Sun 07:17:55 AM 28.7510 -79.3800 15° North 450 518 35,000  Level FlightAware ADS-B
Sun 07:18:31 AM 28.8120 -79.3610 15° North 450 518 35,000  Level FlightAware ADS-B
Sun 07:19:19 AM 28.8940 -79.3360 15° North 450 518 35,000  Level FlightAware ADS-B
Sun 07:19:56 AM 28.9570 -79.3160 16° North 450 518 35,000  Level FlightAware ADS-B
Sun 07:20:32 AM 29.0190 -79.2980 14° North 450 518 35,000  Level FlightAware ADS-B
Sun 07:21:20 AM 29.1010 -79.2720 15° North 450 518 35,000  Level FlightAware ADS-B
Sun 07:21:56 AM 29.1620 -79.2540 14° North 450 518 35,000  Level FlightAware ADS-B
Sun 07:22:56 AM 29.2650 -79.2220 15° North 450 518 35,000  Level FlightAware ADS-B
Sun 07:23:32 AM 29.3270 -79.2030 15° North 450 518 35,000  Level FlightAware ADS-B
Sun 07:24:18 AM 29.6431 -79.2631 15° North 455 524 35,000  Level Jacksonville Center
Sun 07:25:18 AM 29.7647 -79.2203 17° North 459 528 35,000  Level Jacksonville Center
Sun 07:26:18 AM 29.8867 -79.1725 19° North 454 522 35,000 -50 Level Jacksonville Center
Sun 07:27:18 AM 30.0150 -79.1364 14° North 475 547 34,900  Descending Jacksonville Center
Sun 07:28:18 AM 30.1347 -79.0908 18° North 455 524 35,000 50 Climbing Jacksonville Center
Sun 07:29:18 AM 30.2442 -79.0528 17° North 449 517 35,000  Level Jacksonville Center
Sun 07:30:18 AM 30.3597 -79.0072 19° North 454 522 35,000  Level Jacksonville Center
Sun 07:31:18 AM 30.4919 -78.9658 15° North 461 531 35,000  Level Jacksonville Center
Sun 07:32:18 AM 30.6158 -78.9219 17° North 456 525 35,000  Level Jacksonville Center
Sun 07:33:18 AM 30.7378 -78.8783 17° North 456 525 35,000  Level Jacksonville Center
Sun 07:34:18 AM 30.8617 -78.8344 17° North 456 525 35,000  Level Jacksonville Center
Sun 07:35:18 AM 30.9792 -78.7906 18° North 451 519 35,000  Level Jacksonville Center
Sun 07:36:18 AM 31.1175 -78.7433 16° North 457 526 35,000  Level Jacksonville Center
Sun 07:37:18 AM 31.2433 -78.6989 17° North 457 526 35,000 -50 Level Jacksonville Center
Sun 07:38:18 AM 31.3692 -78.6494 19° North 466 536 34,900 -50 Descending Jacksonville Center
Sun 07:39:18 AM 31.4886 -78.6075 17° North 450 518 34,900 16 Level Jacksonville Center
Sun 07:44:32 AM 32.1290 -78.3750 17° North 456 525 35,000 17 Climbing FlightAware ADS-B
Sun 07:45:10 AM 32.1940 -78.3510 17° North 456 525 35,000  Level FlightAware ADS-B
Sun 07:45:51 AM 32.2910 -78.3150 17° North 452 520 35,000  Level FlightAware ADS-B
Sun 07:46:26 AM 32.3540 -78.2920 17° North 452 520 35,000  Level FlightAware ADS-B
Sun 07:47:06 AM 32.4410 -78.2600 17° North 450 518 35,000  Level FlightAware ADS-B
Sun 07:47:41 AM 32.5020 -78.2380 17° North 450 518 35,000  Level FlightAware ADS-B
Sun 07:48:17 AM 32.5040 -78.2370 23° Northeast 450 518 35,000  Level FlightAware ADS-B
Sun 07:49:06 AM 32.6780 -78.1720 17° North 446 513 35,000  Level FlightAware ADS-B
Sun 07:49:36 AM 32.7380 -78.1500 17° North 446 513 35,000  Level FlightAware ADS-B
Sun 07:50:22 AM 32.8130 -78.1220 17° North 446 513 35,000  Level FlightAware ADS-B
Sun 07:51:02 AM 32.9010 -78.0890 17° North 446 513 35,000  Level FlightAware ADS-B
Sun 07:51:41 AM 32.9670 -78.0650 17° North 446 513 35,000  Level FlightAware ADS-B
Sun 07:52:36 AM 32.9010 -78.0890 197° South 35,000  Level FlightAware ADS-B
Sun 07:53:16 AM 33.1660 -77.9900 17° North 451 519 35,000  Level FlightAware ADS-B
Sun 07:54:03 AM 33.2460 -77.9610 17° North 451 519 35,000  Level FlightAware ADS-B
Sun 07:54:39 AM 33.3070 -77.9380 17° North 451 519 35,000  Level FlightAware ADS-B
Sun 07:55:15 AM 33.3680 -77.9160 17° North 451 519 35,000  Level FlightAware ADS-B
Sun 07:55:51 AM 33.4290 -77.8940 17° North 451 519 35,000  Level FlightAware ADS-B
Sun 07:56:27 AM 33.4900 -77.8710 17° North 451 519 35,000  Level FlightAware ADS-B
Sun 07:57:15 AM 33.5710 -77.8410 17° North 451 519 35,000  Level FlightAware ADS-B
Sun 07:57:26 AM 33.1660 -77.9900 197° South 35,000  Level FlightAware ADS-B
Sun 07:57:46 AM 33.7110 -77.7830 18° North 451 519 35,000  Level FlightAware ADS-B
Sun 07:58:31 AM 33.8010 -77.7490 17° North 451 519 35,000  Level FlightAware ADS-B
Sun 07:59:15 AM 33.8740 -77.7220 17° North 450 518 35,000  Level FlightAware ADS-B
Sun 07:59:46 AM 33.9490 -77.6920 18° North 451 519 35,000  Level FlightAware ADS-B
Sun 08:00:27 AM 34.0170 -77.6660 18° North 451 519 35,000  Level FlightAware ADS-B
Sun 08:01:08 AM 34.0910 -77.6390 17° North 451 519 35,000  Level FlightAware ADS-B
Sun 08:01:44 AM 34.1520 -77.6160 17° North 451 519 35,000  Level FlightAware ADS-B
Sun 08:02:32 AM 34.2340 -77.5860 17° North 451 519 35,000  Level FlightAware ADS-B
Sun 08:03:20 AM 34.3150 -77.5560 17° North 451 519 35,000  Level FlightAware ADS-B
Sun 08:04:08 AM 34.3970 -77.5260 17° North 451 519 35,000  Level FlightAware ADS-B
Sun 08:05:10 AM 34.5020 -77.4870 17° North 451 519 35,000  Level FlightAware ADS-B
Sun 08:05:44 AM 34.5590 -77.4650 18° North 451 519 35,000  Level FlightAware ADS-B
Sun 08:06:33 AM 34.6430 -77.4340 17° North 451 519 35,000  Level FlightAware ADS-B
Sun 08:07:10 AM 34.7050 -77.4110 17° North 451 519 35,000  Level FlightAware ADS-B
Sun 08:07:58 AM 34.7870 -77.3810 17° North 451 519 35,000  Level FlightAware ADS-B
Sun 08:08:34 AM 34.8480 -77.3580 17° North 451 519 35,000  Level FlightAware ADS-B
Sun 08:09:32 AM 34.9460 -77.3210 17° North 451 519 35,000  Level FlightAware ADS-B
Sun 08:10:20 AM 35.0280 -77.2910 17° North 451 519 35,000  Level FlightAware ADS-B
Sun 08:16:28 AM 35.9090 -76.7130 28° Northeast 458 527 35,000  Level FlightAware ADS-B
Sun 08:17:23 AM 36.0180 -76.6510 25° Northeast 465 535 35,000  Level FlightAware ADS-B
Sun 08:18:03 AM 36.0960 -76.6070 25° Northeast 465 535 35,000  Level FlightAware ADS-B
Sun 08:18:53 AM 36.1940 -76.5510 25° Northeast 464 534 35,000  Level FlightAware ADS-B
Sun 08:19:26 AM 36.2500 -76.5190 25° Northeast 458 527 35,000  Level FlightAware ADS-B
Sun 08:19:55 AM 36.3150 -76.4830 24° Northeast 464 534 35,000  Level FlightAware ADS-B
Sun 08:20:57 AM 36.4360 -76.4140 25° Northeast 464 534 35,000  Level FlightAware ADS-B
Sun 08:21:37 AM 36.5130 -76.3690 25° Northeast 464 534 35,000  Level FlightAware ADS-B
Sun 08:22:12 AM 36.5810 -76.3420 18° North 458 527 35,000  Level FlightAware ADS-B
Sun 08:22:56 AM 36.6830 -76.3220 North 459 528 35,000  Level FlightAware ADS-B
Sun 08:23:46 AM 36.7750 -76.3020 10° North 459 528 35,000  Level FlightAware ADS-B
Sun 08:24:26 AM 36.8700 -76.2820 10° North 461 531 35,000  Level FlightAware ADS-B
Sun 08:25:06 AM 36.9350 -76.2690 North 461 531 35,000  Level FlightAware ADS-B
Sun 08:25:54 AM 37.0559 -76.2437 North 464 534 35,000  Level FlightAware ADS-B
Sun 08:26:46 AM 37.1674 -76.2200 10° North 463 533 35,000  Level FlightAware ADS-B
Sun 08:27:17 AM 37.2333 -76.2058 10° North 465 535 35,000  Level FlightAware ADS-B
Sun 08:27:25 AM 37.2498 -76.2003 15° North 468 539 35,000  Level FlightAware ADS-B
Sun 08:27:40 AM 37.2806 -76.1855 21° North 470 541 35,000  Level FlightAware ADS-B
Sun 08:28:10 AM 37.3361 -76.1426 32° Northeast 475 547 35,000  Level FlightAware ADS-B
Sun 08:28:44 AM 37.3954 -76.0877 36° Northeast 475 547 35,000  Level FlightAware ADS-B
Sun 08:29:35 AM 37.4854 -76.0035 37° Northeast 475 547 35,000  Level FlightAware ADS-B
Sun 08:30:08 AM 37.5340 -75.9580 37° Northeast 468 539 35,000  Level FlightAware ADS-B
Sun 08:30:53 AM 37.6190 -75.8780 37° Northeast 468 539 35,000  Level FlightAware ADS-B
Sun 08:31:32 AM 37.6860 -75.8150 37° Northeast 468 539 35,000  Level FlightAware ADS-B
Sun 08:31:52 AM 37.7265 -75.7767 37° Northeast 474 545 35,000  Level FlightAware ADS-B
Sun 08:32:25 AM 37.7840 -75.7224 37° Northeast 476 548 35,000  Level FlightAware ADS-B
Sun 08:32:58 AM 37.8422 -75.6673 37° Northeast 476 548 35,000  Level FlightAware ADS-B
Sun 08:33:59 AM 37.9400 -75.5750 37° Northeast 471 542 35,000  Level FlightAware ADS-B
Sun 08:34:33 AM 38.0080 -75.5100 37° Northeast 472 543 35,000  Level FlightAware ADS-B
Sun 08:34:57 AM 38.0541 -75.4695 35° Northeast 477 549 35,000  Level FlightAware ADS-B
Sun 08:35:28 AM 38.1135 -75.4279 29° Northeast 476 548 35,000  Level FlightAware ADS-B
Sun 08:35:59 AM 38.1746 -75.3888 27° Northeast 476 548 35,000  Level FlightAware ADS-B
Sun 08:36:44 AM 38.2633 -75.3333 26° Northeast 476 548 35,000  Level FlightAware ADS-B
Sun 08:37:21 AM 38.3364 -75.2872 26° Northeast 478 550 35,000  Level FlightAware ADS-B
Sun 08:37:55 AM 38.4033 -75.2447 26° Northeast 477 549 35,000  Level FlightAware ADS-B
Sun 08:38:31 AM 38.4735 -75.2002 26° Northeast 478 550 35,000  Level FlightAware ADS-B
Sun 08:39:03 AM 38.5383 -75.1588 27° Northeast 478 550 35,000  Level FlightAware ADS-B
Sun 08:39:36 AM 38.6037 -75.1169 27° Northeast 479 551 35,000  Level FlightAware ADS-B
Sun 08:40:20 AM 38.6893 -75.0622 27° Northeast 479 551 35,000  Level FlightAware ADS-B
Sun 08:40:53 AM 38.7546 -75.0203 27° Northeast 479 551 35,000 -938 Level FlightAware ADS-B
Sun 08:41:24 AM 38.8163 -74.9807 27° Northeast 480 552 34,000 -2,459 Descending FlightAware ADS-B
Sun 08:41:54 AM 38.8769 -74.9414 27° Northeast 485 558 32,500 -2,500 Descending FlightAware ADS-B
Sun 08:42:24 AM 38.9367 -74.9029 27° Northeast 479 551 31,500 -1,967 Descending FlightAware ADS-B
Sun 08:42:55 AM 38.9967 -74.8641 27° Northeast 473 544 30,500 -1,935 Descending FlightAware ADS-B
Sun 08:43:26 AM 39.0571 -74.8248 27° Northeast 467 537 29,500 -1,932 Descending FlightAware ADS-B
Sun 08:43:54 AM 39.1086 -74.7839 32° Northeast 465 535 28,600 -1,966 Descending FlightAware ADS-B
Sun 08:44:24 AM 39.1593 -74.7318 39° Northeast 461 531 27,600 -1,967 Descending FlightAware ADS-B
Sun 08:44:55 AM 39.2091 -74.6783 40° Northeast 456 525 26,600 -1,935 Descending FlightAware ADS-B
Sun 08:45:26 AM 39.2583 -74.6248 40° Northeast 452 520 25,600 -1,967 Descending FlightAware ADS-B
Sun 08:45:56 AM 39.3062 -74.5722 40° Northeast 447 514 24,600 -1,967 Descending FlightAware ADS-B
Sun 08:46:27 AM 39.3543 -74.5199 40° Northeast 442 509 23,600 -1,869 Descending FlightAware ADS-B
Sun 08:46:57 AM 39.4019 -74.4679 40° Northeast 437 503 22,700 -1,869 Descending FlightAware ADS-B
Sun 08:47:28 AM 39.4489 -74.4169 40° Northeast 431 496 21,700 -1,869 Descending FlightAware ADS-B
Sun 08:47:58 AM 39.4946 -74.3670 40° Northeast 426 490 20,800 -1,810 Descending FlightAware ADS-B
Sun 08:48:31 AM 39.5414 -74.3159 40° Northeast 392 451 19,800 -1,594 Descending FlightAware ADS-B
Sun 08:49:02 AM 39.5832 -74.2700 40° Northeast 377 434 19,100 -1,258 Descending FlightAware ADS-B
Sun 08:49:33 AM 39.6254 -74.2237 40° Northeast 390 449 18,500 -1,770 Descending FlightAware ADS-B
Sun 08:50:03 AM 39.6674 -74.1776 40° Northeast 399 459 17,300 -2,066 Descending FlightAware ADS-B
Sun 08:50:34 AM 39.7102 -74.1303 40° Northeast 395 455 16,400 -2,066 Descending FlightAware ADS-B
Sun 08:51:04 AM 39.7511 -74.0851 40° Northeast 382 440 15,200 -2,754 Descending FlightAware ADS-B
Sun 08:51:35 AM 39.7927 -74.0391 40° Northeast 372 428 13,600 -2,700 Descending FlightAware ADS-B
Sun 08:52:04 AM 39.8297 -73.9988 40° Northeast 355 409 12,500 -1,950 Descending FlightAware ADS-B
Sun 08:52:15 AM 39.8442 -73.9865 33° Northeast 340 391 12,300 -1,277 Descending FlightAware ADS-B
Sun 08:52:51 AM 39.8911 -73.9514 30° Northeast 317 365 11,500 -1,182 Descending FlightAware ADS-B
Sun 08:53:21 AM 39.9298 -73.9231 29° Northeast 310 357 11,000 -1,048 Descending FlightAware ADS-B
Sun 08:53:54 AM 39.9708 -73.8930 29° Northeast 309 356 10,400 -1,132 Descending FlightAware ADS-B
Sun 08:54:14 AM 39.9957 -73.8748 29° Northeast 308 354 10,000 -1,135 Descending FlightAware ADS-B
Sun 08:54:31 AM 40.0167 -73.8595 29° Northeast 305 351 9,700 -1,333 Descending FlightAware ADS-B
Sun 08:54:41 AM 40.0295 -73.8525 23° Northeast 300 345 9,400 -1,200 Descending FlightAware ADS-B
Sun 08:54:56 AM 40.0495 -73.8501 North 297 342 9,200 -1,091 Descending FlightAware ADS-B
Sun 08:55:03 AM 40.0589 -73.8502 360° North 289 333 9,000 -1,286 Descending FlightAware ADS-B
Sun 08:55:10 AM 40.0680 -73.8502 360° North 289 333 8,900 -1,154 Descending FlightAware ADS-B
Sun 08:55:29 AM 40.0934 -73.8497 North 289 333 8,500 -1,667 Descending FlightAware ADS-B
Sun 08:55:46 AM 40.1157 -73.8492 North 286 329 7,900 -2,118 Descending FlightAware ADS-B
Sun 08:56:03 AM 40.1390 -73.8488 North 287 330 7,300 -2,182 Descending FlightAware ADS-B
Sun 08:56:19 AM 40.1594 -73.8487 360° North 284 327 6,700 -2,069 Descending FlightAware ADS-B
Sun 08:56:32 AM 40.1769 -73.8486 360° North 280 322 6,300 -2,143 Descending FlightAware ADS-B
Sun 08:56:47 AM 40.1962 -73.8489 359° North 276 318 5,700 -2,250 Descending FlightAware ADS-B
Sun 08:57:04 AM 40.2180 -73.8492 359° North 274 315 5,100 -2,108 Descending FlightAware ADS-B
Sun 08:57:24 AM 40.2427 -73.8494 360° North 270 311 4,400 -2,049 Descending FlightAware ADS-B
Sun 08:57:45 AM 40.2692 -73.8502 359° North 272 313 3,700 -1,667 Descending FlightAware ADS-B
Sun 08:58:00 AM 40.2884 -73.8508 359° North 270 311 3,400 -727 Descending FlightAware ADS-B
Sun 08:58:18 AM 40.3096 -73.8516 358° North 268 308 3,300 -364 Descending FlightAware ADS-B
Sun 08:58:33 AM 40.3279 -73.8524 358° North 253 291 3,200 -600 Descending FlightAware ADS-B
Sun 08:58:48 AM 40.3454 -73.8533 358° North 246 283 3,000 -1,224 Descending FlightAware ADS-B
Sun 08:59:22 AM 40.3819 -73.8571 355° North 237 273 2,200 -1,053 Descending FlightAware ADS-B
Sun 08:59:45 AM 40.4055 -73.8616 352° North 212 244 2,000 -164 Descending FlightAware ADS-B
Sun 09:00:35 AM 40.4490 -73.8720 350° North 198 228 2,000  Level FlightAware ADS-B
Sun 09:00:47 AM 40.4610 -73.8740 353° North 201 231 2,000  Level FlightAware ADS-B

Login

Don't have an account? Register now (free) for customized features, flight alerts, and more!